Create Tblcommutelog Verified Points Advance Search
| # | Trip ID | Id Commuter | Trip Date | Trip Num | Current Lat | Current Lng | Delta Distance | Current Time | Activity | Activity Confidence | Current Speed | |
|---|---|---|---|---|---|---|---|---|---|---|---|---|
| 72321 | 250617_780810_6461772_0738 | 780810 | (not set) | (not set) | 39.018998487278 | -77.07540933844 | 1.1815 | 2025-06-17 11:46:02.491 | on_bicycle | 100 | 3.6836034940588 | |
| 72322 | 250617_761648_16500693_0730 | 761648 | (not set) | (not set) | 38.932518780075 | -76.992972277235 | 2.424 | 2025-06-17 11:46:03.056 | on_bicycle | 100 | 3.6970146718285 | |
| 72323 | 250617_108110_16500693_0735 | 108110 | (not set) | (not set) | 39.02773910585 | -77.100947711283 | 0.4646 | 2025-06-17 11:46:03.207 | on_foot | 100 | 0.68397006625122 | |
| 72324 | 250617_785018_16461741_0734 | 785018 | (not set) | (not set) | 39.3042363 | -77.485148 | 7.2463 | 2025-06-17 11:46:03.281 | in_vehicle | 100 | 9.3073573721244 | |
| 72325 | 250617_767309_6423049_0709 | 767309 | (not set) | (not set) | 38.896578755814 | -77.044831093586 | 10.175 | 2025-06-17 11:46:03.457 | on_foot | 100 | 0.73761477732975 | |
| 72326 | 250617_784850_16652920_0737 | 784850 | (not set) | (not set) | 38.96895535229 | -76.925118413815 | 1.2326 | 2025-06-17 11:46:05.216 | in_vehicle | 100 | 6.6206514256082 | |
| 72327 | 250617_786307_16514569_0710 | 786307 | (not set) | (not set) | 39.114882283333 | -76.92796055 | 20.9206 | 2025-06-17 11:46:05.382 | in_vehicle | 100 | 10.18802471233 | |
| 72328 | 250617_761160_16501547_0737 | 761160 | (not set) | (not set) | 38.9092044 | -77.0235214 | 0.3145 | 2025-06-17 11:46:06.282 | walking | 100 | -0.44703925898772 | |
| 72329 | 250617_784798_16513879_0738 | 784798 | (not set) | (not set) | 38.790911989031 | -77.631853068295 | 5.0495 | 2025-06-17 11:46:08.635 | in_vehicle | 100 | 0 | |
| 72330 | 250617_784798_16513879_0738 | 784798 | (not set) | (not set) | 38.790911989031 | -77.631853068295 | 5.0495 | 2025-06-17 11:46:08.639 | in_vehicle | 100 | 0 | |
| 72331 | 250617_785674_6441454_0719 | 785674 | (not set) | (not set) | 39.16314836449 | -77.237035057286 | 12.6386 | 2025-06-17 11:46:09.349 | in_vehicle | 100 | 3.5986660348512 | |
| 72332 | 250617_785674_6441454_0719 | 785674 | (not set) | (not set) | 39.16309947925 | -77.236950642284 | 12.6442 | 2025-06-17 11:46:09.382 | in_vehicle | 100 | 4.0457052938389 | |
| 72333 | 250617_775339_16505279_0730 | 775339 | (not set) | (not set) | 38.944262820339 | -77.290477828631 | 9.3278 | 2025-06-17 11:46:11.152 | in_vehicle | 100 | 12.208642162955 | |
| 72334 | 250617_738572_16489587_0659 | 738572 | (not set) | (not set) | 38.889824171274 | -77.003305014335 | 21.4874 | 2025-06-17 11:46:11.935 | in_vehicle | 100 | 1.81944978408 | |
| 72335 | 250617_764454_16507126_0710 | 764454 | (not set) | (not set) | 38.944963692898 | -77.292139756743 | 18.7616 | 2025-06-17 11:46:11.95 | in_vehicle | 100 | 11.985122533461 | |
| 72336 | 250617_784389_6428266_0704 | 784389 | (not set) | (not set) | 38.931077887388 | -77.210486565259 | 24.998 | 2025-06-17 11:46:12.264 | in_vehicle | 100 | 4.8190832118877 | |
| 72337 | 250617_781352_16462581_0735 | 781352 | (not set) | (not set) | 38.890560190755 | -77.022759458823 | 1.2457 | 2025-06-17 11:46:12.41 | on_bicycle | 100 | 2.3380153245058 | |
| 72338 | 250617_764454_16507126_0710 | 764454 | (not set) | (not set) | 38.945787726079 | -77.294333354175 | 18.6305 | 2025-06-17 11:46:12.954 | in_vehicle | 100 | 12.195230985185 | |
| 72339 | 250617_731669_16507744_0702 | 731669 | (not set) | (not set) | 38.78271210738 | -77.383186090555 | 14.6004 | 2025-06-17 11:46:13.298 | in_vehicle | 100 | 9.9466235124769 | |
| 72340 | 250617_764454_16507126_0710 | 764454 | (not set) | (not set) | 38.946207838264 | -77.295523322405 | 18.5602 | 2025-06-17 11:46:15.179 | in_vehicle | 100 | 12.646740636763 |